Terminal Aerodrome Forecast
Issued by NWS Indianapolis, IN

Home | Current Version | Previous Version | Text Only | Print | Product List | Glossary On
Versions: 1 2 3 4 5 6 7 8 9 10 11 12 13 14 15 16 17 18 19 20 21 22 23 24 25
000
FTUS43 KIND 191120
TAFIND
TAF
KIND 191120Z 1912/2018 VRB03KT P6SM VCTS BKN050CB
     FM191300 VRB03KT P6SM SCT050
     FM192100 30005KT P6SM FEW250
     FM201400 16004KT P6SM FEW140
     FM201500 17004KT P6SM FEW035=

USA.gov is the U.S. government's official web portal to all federal, state and local government web resources and services.